Time;durP1;ratioP1;P1;durP2;ratioP2;P2;SDS_P1;SDS_P2;PMS_P1;PMS_P2;Temp;Humidity;BMP_temperature;BMP_pressure;BME280_temperature;BME280_humidity;BME280_pressure;Samples;Min_cycle;Max_cycle;Signal;HPM_P1;HPM_P2
2023/10/21 00:00:53;;;;;;;39.65;16.38;;;;;;;;;;10489853;28;20499;-83
2023/10/21 00:05:54;;;;;;;36.15;14.50;;;;;;;;;;10490112;28;20044;-82
2023/10/21 00:11:04;;;;;;;34.40;14.32;;;;;;;;;;10488547;28;20072;-81
2023/10/21 00:16:05;;;;;;;34.97;13.30;;;;;;;;;;10488971;28;20136;-81
2023/10/21 00:21:06;;;;;;;40.22;12.73;;;;;;;;;;10489375;28;20032;-82
2023/10/21 00:26:08;;;;;;;31.55;12.50;;;;;;;;;;10488741;28;20032;-82
2023/10/21 00:31:09;;;;;;;33.10;12.13;;;;;;;;;;10488010;28;20049;-82
2023/10/21 00:36:10;;;;;;;31.27;11.20;;;;;;;;;;10488701;28;20032;-82
2023/10/21 00:41:11;;;;;;;30.05;12.60;;;;;;;;;;10488086;28;20488;-82
2023/10/21 00:46:14;;;;;;;31.27;14.25;;;;;;;;;;10487790;28;20025;-82
2023/10/21 00:51:15;;;;;;;33.13;13.45;;;;;;;;;;10488007;28;20447;-82
2023/10/21 00:56:16;;;;;;;32.42;12.02;;;;;;;;;;10484073;28;20044;-83
2023/10/21 01:01:17;;;;;;;32.05;12.20;;;;;;;;;;10488078;28;20039;-82
2023/10/21 01:06:18;;;;;;;32.42;11.98;;;;;;;;;;10486978;28;20440;-81
2023/10/21 01:11:19;;;;;;;35.50;14.73;;;;;;;;;;10486061;28;20060;-82
2023/10/21 01:16:20;;;;;;;29.13;14.15;;;;;;;;;;10486991;28;20502;-82
2023/10/21 01:21:21;;;;;;;38.30;13.70;;;;;;;;;;10486490;28;20028;-82
2023/10/21 01:26:22;;;;;;;39.63;13.43;;;;;;;;;;10486965;28;20028;-82
2023/10/21 01:31:23;;;;;;;37.15;14.23;;;;;;;;;;10485874;28;20032;-83
2023/10/21 01:36:24;;;;;;;39.88;13.65;;;;;;;;;;10486148;28;20028;-82
2023/10/21 01:41:25;;;;;;;35.30;12.50;;;;;;;;;;10486276;28;20032;-82
2023/10/21 01:46:33;;;;;;;32.92;13.52;;;;;;;;;;10485723;28;20037;-84
2023/10/21 01:51:34;;;;;;;26.63;11.63;;;;;;;;;;10486336;28;20559;-82
2023/10/21 01:56:35;;;;;;;24.45;10.38;;;;;;;;;;10484881;28;20024;-81
2023/10/21 02:01:42;;;;;;;30.30;10.70;;;;;;;;;;10485242;28;20043;-81
2023/10/21 02:06:43;;;;;;;37.75;11.57;;;;;;;;;;10475143;28;20044;-83
2023/10/21 02:11:44;;;;;;;33.38;10.18;;;;;;;;;;10484317;28;20064;-81
2023/10/21 02:16:45;;;;;;;28.88;10.57;;;;;;;;;;10483625;28;20035;-82
2023/10/21 02:21:47;;;;;;;27.08;10.68;;;;;;;;;;10484392;28;20058;-83
2023/10/21 02:26:49;;;;;;;28.08;10.80;;;;;;;;;;10483369;28;20086;-82
2023/10/21 02:31:50;;;;;;;31.83;10.82;;;;;;;;;;10483920;28;20069;-81
2023/10/21 02:36:51;;;;;;;31.58;12.50;;;;;;;;;;10484639;28;20743;-82
2023/10/21 02:41:52;;;;;;;34.03;13.13;;;;;;;;;;10483684;28;20043;-83
2023/10/21 02:46:53;;;;;;;29.50;10.80;;;;;;;;;;10484360;28;20029;-82
2023/10/21 02:51:55;;;;;;;29.63;10.50;;;;;;;;;;10483786;28;20052;-82
2023/10/21 02:56:56;;;;;;;27.48;10.73;;;;;;;;;;10482328;28;20201;-81
2023/10/21 03:01:57;;;;;;;30.00;11.98;;;;;;;;;;10482255;28;20024;-82
2023/10/21 03:06:59;;;;;;;30.60;13.38;;;;;;;;;;10482248;28;20028;-83
2023/10/21 03:12:07;;;;;;;35.78;14.40;;;;;;;;;;10481498;28;20059;-83
2023/10/21 03:17:08;;;;;;;28.42;12.15;;;;;;;;;;10481781;28;20032;-84
2023/10/21 03:22:09;;;;;;;26.58;10.82;;;;;;;;;;10490197;28;20061;-82
2023/10/21 03:27:10;;;;;;;40.63;13.27;;;;;;;;;;10491348;28;20031;-82
2023/10/21 03:32:11;;;;;;;29.50;13.30;;;;;;;;;;10490590;28;20048;-83
2023/10/21 03:37:12;;;;;;;36.72;13.68;;;;;;;;;;10491552;28;20028;-82
2023/10/21 03:42:13;;;;;;;39.10;15.43;;;;;;;;;;10490238;28;20036;-82
2023/10/21 03:47:14;;;;;;;25.35;11.77;;;;;;;;;;10489141;28;20029;-82
2023/10/21 03:52:15;;;;;;;28.83;11.60;;;;;;;;;;10490215;28;20472;-84
2023/10/21 03:57:16;;;;;;;34.20;15.38;;;;;;;;;;10488920;28;20061;-82
2023/10/21 04:02:17;;;;;;;36.75;13.75;;;;;;;;;;10487937;28;20491;-85
2023/10/21 04:07:18;;;;;;;33.00;12.57;;;;;;;;;;10490735;28;20033;-82
2023/10/21 04:12:19;;;;;;;28.75;12.18;;;;;;;;;;10488539;28;20060;-82
2023/10/21 04:17:20;;;;;;;29.65;12.25;;;;;;;;;;10489425;28;20797;-86
2023/10/21 04:22:21;;;;;;;34.83;16.58;;;;;;;;;;10488704;28;20074;-84
2023/10/21 04:27:22;;;;;;;41.75;16.85;;;;;;;;;;10484622;28;20469;-87
2023/10/21 04:32:24;;;;;;;42.55;16.42;;;;;;;;;;10480053;28;20056;-86
2023/10/21 04:37:25;;;;;;;45.08;19.98;;;;;;;;;;10482993;28;20220;-84
2023/10/21 04:42:26;;;;;;;42.65;17.67;;;;;;;;;;10476194;28;20028;-84
2023/10/21 04:47:28;;;;;;;42.35;17.70;;;;;;;;;;10487349;28;20039;-83
2023/10/21 04:52:29;;;;;;;47.25;18.67;;;;;;;;;;10482637;28;20024;-84
2023/10/21 04:57:30;;;;;;;41.22;18.23;;;;;;;;;;10486955;28;20056;-84
2023/10/21 05:02:31;;;;;;;41.72;16.17;;;;;;;;;;10490499;28;20040;-85
2023/10/21 05:07:32;;;;;;;38.65;17.38;;;;;;;;;;10487466;28;20028;-82
2023/10/21 05:12:34;;;;;;;31.45;14.63;;;;;;;;;;10485492;28;20057;-83
2023/10/21 05:17:35;;;;;;;32.53;16.35;;;;;;;;;;10487551;28;20035;-83
2023/10/21 05:22:37;;;;;;;63.35;23.02;;;;;;;;;;10487471;28;20082;-83
2023/10/21 05:27:38;;;;;;;50.15;21.85;;;;;;;;;;10486984;28;20032;-82
2023/10/21 05:32:39;;;;;;;43.03;18.95;;;;;;;;;;10486779;28;20832;-84
2023/10/21 05:37:40;;;;;;;37.75;19.13;;;;;;;;;;10487458;28;20498;-84
2023/10/21 05:42:41;;;;;;;38.13;18.63;;;;;;;;;;10485245;28;20059;-83
2023/10/21 05:47:42;;;;;;;40.60;17.48;;;;;;;;;;10484613;28;20307;-82
2023/10/21 05:52:43;;;;;;;45.55;19.40;;;;;;;;;;10479291;28;20123;-84
2023/10/21 05:57:44;;;;;;;40.55;16.83;;;;;;;;;;10485142;28;20025;-85
2023/10/21 06:02:45;;;;;;;38.53;15.68;;;;;;;;;;10487346;28;20531;-83
2023/10/21 06:07:47;;;;;;;35.83;16.77;;;;;;;;;;10504722;28;20035;-81
2023/10/21 06:12:48;;;;;;;32.53;15.13;;;;;;;;;;10484484;28;20064;-83
2023/10/21 06:17:49;;;;;;;39.65;17.23;;;;;;;;;;10484981;28;20039;-80
2023/10/21 06:22:51;;;;;;;33.38;15.20;;;;;;;;;;10485495;28;20427;-82
2023/10/21 06:27:52;;;;;;;37.42;15.90;;;;;;;;;;10485280;28;20033;-82
2023/10/21 06:32:53;;;;;;;37.63;15.90;;;;;;;;;;10485039;28;20024;-82
2023/10/21 06:37:54;;;;;;;31.58;14.48;;;;;;;;;;10472198;28;20380;-82
2023/10/21 06:42:56;;;;;;;40.40;18.98;;;;;;;;;;10484887;28;20498;-80
2023/10/21 06:47:57;;;;;;;33.15;16.27;;;;;;;;;;10482901;28;20441;-80
2023/10/21 06:52:58;;;;;;;40.60;19.10;;;;;;;;;;10482877;28;20060;-81
2023/10/21 06:57:59;;;;;;;58.65;26.00;;;;;;;;;;10482455;28;20028;-80
2023/10/21 07:03:00;;;;;;;53.03;24.60;;;;;;;;;;10482798;28;20024;-81
2023/10/21 07:08:02;;;;;;;48.47;20.83;;;;;;;;;;10483407;28;20127;-82
2023/10/21 07:13:03;;;;;;;48.38;21.02;;;;;;;;;;10482565;28;20099;-79
2023/10/21 07:18:04;;;;;;;104.90;86.43;;;;;;;;;;10483349;28;20463;-80
2023/10/21 07:23:08;;;;;;;66.85;43.42;;;;;;;;;;10472030;28;20698;-80
2023/10/21 07:28:10;;;;;;;118.95;102.72;;;;;;;;;;10481433;28;20029;-82
2023/10/21 07:33:11;;;;;;;39.05;25.15;;;;;;;;;;10483419;28;20032;-81
2023/10/21 07:38:12;;;;;;;37.80;19.42;;;;;;;;;;10482425;28;20028;-80
2023/10/21 07:43:17;;;;;;;32.72;13.73;;;;;;;;;;10482942;28;20116;-79
2023/10/21 07:48:18;;;;;;;;;;;;;;;;;;10482085;28;20377;-84
2023/10/21 07:53:20;;;;;;;29.33;11.63;;;;;;;;;;10482950;28;19912;-81
2023/10/21 07:58:22;;;;;;;36.42;11.20;;;;;;;;;;10482757;28;20070;-81
2023/10/21 08:03:30;;;;;;;33.97;13.55;;;;;;;;;;10482933;28;20164;-81
2023/10/21 08:08:31;;;;;;;30.27;10.95;;;;;;;;;;10488622;28;20488;-86
2023/10/21 08:13:38;;;;;;;29.50;12.25;;;;;;;;;;10487697;28;20064;-82
2023/10/21 08:18:43;;;;;;;31.10;11.85;;;;;;;;;;10485821;28;20036;-81
2023/10/21 08:23:44;;;;;;;32.63;14.70;;;;;;;;;;10486613;28;20444;-82
2023/10/21 08:28:45;;;;;;;28.13;12.13;;;;;;;;;;10483177;28;20652;-87
2023/10/21 08:33:53;;;;;;;24.33;10.40;;;;;;;;;;10489464;28;20024;-87
2023/10/21 08:38:54;;;;;;;23.88;9.40;;;;;;;;;;10489537;28;20111;-84
2023/10/21 08:43:56;;;;;;;28.38;10.55;;;;;;;;;;10485670;28;20028;-84
2023/10/21 08:48:57;;;;;;;19.70;8.75;;;;;;;;;;10501865;28;20029;-84
2023/10/21 08:53:59;;;;;;;27.90;10.50;;;;;;;;;;10488529;28;20408;-84
2023/10/21 08:59:01;;;;;;;23.40;10.00;;;;;;;;;;10479702;28;20494;-86
2023/10/21 09:04:03;;;;;;;32.13;13.80;;;;;;;;;;10489384;28;20471;-84
2023/10/21 09:09:04;;;;;;;27.98;10.52;;;;;;;;;;10487984;28;20049;-84
2023/10/21 09:14:06;;;;;;;25.98;10.10;;;;;;;;;;10484606;28;20056;-85
2023/10/21 09:19:07;;;;;;;27.02;9.27;;;;;;;;;;10487192;28;20036;-83
2023/10/21 09:24:10;;;;;;;31.67;15.70;;;;;;;;;;10487101;28;20036;-83
2023/10/21 09:29:16;;;;;;;25.42;11.30;;;;;;;;;;10468443;28;20053;-83
2023/10/21 09:34:35;;;;;;;31.67;12.90;;;;;;;;;;10482258;28;20042;-86
2023/10/21 09:39:37;;;;;;;26.48;8.63;;;;;;;;;;10472723;28;20065;-81
2023/10/21 09:44:39;;;;;;;22.08;7.65;;;;;;;;;;10486385;28;20036;-84
2023/10/21 09:49:40;;;;;;;19.77;6.43;;;;;;;;;;10484434;28;20086;-83
2023/10/21 09:54:48;;;;;;;27.83;9.68;;;;;;;;;;10485944;28;20024;-84
2023/10/21 09:59:50;;;;;;;30.70;12.85;;;;;;;;;;10467593;28;20028;-83
2023/10/21 10:04:51;;;;;;;30.52;13.57;;;;;;;;;;10485783;28;20055;-84
2023/10/21 10:09:52;;;;;;;17.45;5.68;;;;;;;;;;10483761;28;20542;-84
2023/10/21 10:15:00;;;;;;;18.15;5.70;;;;;;;;;;10483503;28;20064;-84
2023/10/21 10:20:18;;;;;;;19.92;5.68;;;;;;;;;;10484541;28;20027;-84
2023/10/21 10:25:26;;;;;;;21.73;9.25;;;;;;;;;;10470968;28;20028;-84
2023/10/21 10:30:32;;;;;;;19.48;6.25;;;;;;;;;;10481510;28;20708;-83
2023/10/21 10:35:41;;;;;;;22.92;8.07;;;;;;;;;;10484383;28;20974;-83
2023/10/21 10:40:44;;;;;;;16.77;6.07;;;;;;;;;;10484502;28;20435;-83
2023/10/21 10:45:47;;;;;;;18.05;6.13;;;;;;;;;;10483122;28;20033;-84
2023/10/21 10:50:48;;;;;;;12.07;4.20;;;;;;;;;;10485011;28;20028;-81
2023/10/21 10:55:55;;;;;;;14.10;4.50;;;;;;;;;;10483746;28;20733;-82
2023/10/21 11:00:57;;;;;;;20.58;7.05;;;;;;;;;;10484013;28;20040;-83
2023/10/21 11:05:59;;;;;;;33.08;12.23;;;;;;;;;;10483481;28;20033;-84
2023/10/21 11:11:04;;;;;;;18.00;4.93;;;;;;;;;;10483165;28;20487;-84
2023/10/21 11:16:07;;;;;;;17.05;4.60;;;;;;;;;;10481211;28;20052;-84
2023/10/21 11:21:08;;;;;;;16.08;5.22;;;;;;;;;;10482114;28;20070;-85
2023/10/21 11:26:09;;;;;;;17.70;6.10;;;;;;;;;;10482015;28;20037;-84
2023/10/21 11:31:10;;;;;;;21.55;6.40;;;;;;;;;;10480327;28;20502;-86
2023/10/21 11:36:13;;;;;;;19.35;5.20;;;;;;;;;;10483662;28;20470;-85
2023/10/21 11:41:14;;;;;;;20.98;6.05;;;;;;;;;;10479770;28;20071;-85
2023/10/21 11:46:17;;;;;;;18.25;5.82;;;;;;;;;;10482724;28;20032;-88
2023/10/21 11:51:18;;;;;;;11.07;4.57;;;;;;;;;;10489988;28;20039;-84
2023/10/21 12:28:37;;;;;;;13.52;4.80;;;;;;;;;;10476706;28;20068;-85
2023/10/21 12:33:55;;;;;;;13.70;5.13;;;;;;;;;;10484421;28;20063;-86
2023/10/21 12:39:20;;;;;;;15.30;4.85;;;;;;;;;;10491158;28;20040;-87
2023/10/21 12:44:23;;;;;;;14.82;5.90;;;;;;;;;;10479327;28;20036;-85
2023/10/21 12:49:25;;;;;;;13.48;4.88;;;;;;;;;;10486791;28;20063;-85
2023/10/21 12:54:30;;;;;;;18.65;6.35;;;;;;;;;;10491032;28;20023;-84
2023/10/21 12:59:34;;;;;;;18.67;6.88;;;;;;;;;;10473046;28;20040;-83
2023/10/21 13:04:40;;;;;;;11.70;4.20;;;;;;;;;;10476652;28;20484;-83
2023/10/21 13:09:42;;;;;;;14.13;5.00;;;;;;;;;;10469742;28;20044;-83
2023/10/21 13:14:44;;;;;;;11.43;3.63;;;;;;;;;;10487404;28;20049;-83
2023/10/21 13:19:46;;;;;;;10.40;3.92;;;;;;;;;;10487683;28;20033;-84
2023/10/21 13:24:48;;;;;;;12.88;4.65;;;;;;;;;;10487729;28;20064;-83
2023/10/21 13:29:49;;;;;;;15.38;4.97;;;;;;;;;;10487446;28;20523;-83
2023/10/21 13:34:58;;;;;;;15.07;4.43;;;;;;;;;;10486465;28;20051;-83
2023/10/21 13:39:59;;;;;;;13.20;4.93;;;;;;;;;;10487388;28;20032;-83
2023/10/21 13:45:13;;;;;;;12.10;4.20;;;;;;;;;;10476525;28;20074;-84
2023/10/21 13:50:18;;;;;;;11.23;4.53;;;;;;;;;;10486205;28;20105;-80
2023/10/21 13:55:19;;;;;;;10.77;4.07;;;;;;;;;;10500846;28;20273;-82
2023/10/21 14:00:34;;;;;;;12.45;4.43;;;;;;;;;;10477876;28;20025;-81
2023/10/21 14:05:45;;;;;;;17.27;4.60;;;;;;;;;;10485077;28;20376;-82
2023/10/21 14:10:47;;;;;;;14.18;4.60;;;;;;;;;;10482790;28;20133;-79
2023/10/21 14:15:58;;;;;;;12.48;5.50;;;;;;;;;;10483353;28;20048;-83
2023/10/21 14:20:59;;;;;;;19.60;10.00;;;;;;;;;;10483501;28;20059;-81
2023/10/21 14:26:01;;;;;;;23.10;7.97;;;;;;;;;;10477082;28;20792;-82
2023/10/21 14:31:03;;;;;;;19.98;7.97;;;;;;;;;;10483749;28;20048;-81
2023/10/21 14:36:11;;;;;;;17.02;8.82;;;;;;;;;;10485092;28;20102;-80
2023/10/21 14:41:12;;;;;;;21.23;10.52;;;;;;;;;;10465930;28;20744;-81
2023/10/21 14:46:14;;;;;;;40.38;23.13;;;;;;;;;;10483722;28;20567;-81
2023/10/21 14:51:16;;;;;;;29.00;16.33;;;;;;;;;;10484446;28;20561;-81
2023/10/21 14:56:17;;;;;;;130.73;91.60;;;;;;;;;;10481835;28;20032;-82
2023/10/21 15:01:19;;;;;;;137.52;109.50;;;;;;;;;;10493366;28;20044;-80
2023/10/21 15:06:20;;;;;;;30.08;15.02;;;;;;;;;;10484926;28;20032;-81
2023/10/21 15:11:21;;;;;;;41.05;27.00;;;;;;;;;;10475365;28;20717;-81
2023/10/21 15:16:22;;;;;;;41.05;27.60;;;;;;;;;;10482718;28;20622;-82
2023/10/21 15:21:23;;;;;;;96.80;63.83;;;;;;;;;;10491824;28;20013;-81
2023/10/21 15:26:24;;;;;;;24.90;13.45;;;;;;;;;;10488539;28;20024;-81
2023/10/21 15:31:25;;;;;;;23.73;13.38;;;;;;;;;;10491468;28;20039;-81
2023/10/21 15:36:26;;;;;;;30.50;15.63;;;;;;;;;;10491288;28;20437;-82
2023/10/21 15:41:28;;;;;;;28.10;12.75;;;;;;;;;;10492069;28;20017;-81
2023/10/21 15:46:29;;;;;;;20.92;11.13;;;;;;;;;;10490419;28;20106;-82
2023/10/21 15:51:31;;;;;;;18.40;9.55;;;;;;;;;;10490500;28;20110;-81
2023/10/21 15:56:33;;;;;;;37.05;18.60;;;;;;;;;;10485276;28;20063;-81
2023/10/21 16:01:37;;;;;;;69.20;31.77;;;;;;;;;;10489051;28;20060;-81
2023/10/21 16:06:38;;;;;;;49.50;24.10;;;;;;;;;;10487424;28;20036;-81
2023/10/21 16:11:39;;;;;;;41.60;23.17;;;;;;;;;;10489569;28;20132;-82
2023/10/21 16:16:40;;;;;;;41.25;22.08;;;;;;;;;;10489775;28;20044;-82
2023/10/21 16:21:41;;;;;;;36.20;20.13;;;;;;;;;;10488186;28;20025;-82
2023/10/21 16:26:42;;;;;;;31.83;14.65;;;;;;;;;;10485380;28;20379;-82
2023/10/21 16:31:43;;;;;;;31.27;14.48;;;;;;;;;;10482899;28;20040;-79
2023/10/21 16:36:44;;;;;;;27.08;13.00;;;;;;;;;;10488235;28;20028;-81
2023/10/21 16:41:46;;;;;;;20.33;9.48;;;;;;;;;;10487334;28;20029;-80
2023/10/21 16:46:47;;;;;;;20.08;9.90;;;;;;;;;;10487001;28;20046;-80
2023/10/21 16:51:48;;;;;;;21.90;9.45;;;;;;;;;;10494106;28;20086;-80
2023/10/21 16:56:49;;;;;;;20.80;9.55;;;;;;;;;;10475768;28;20500;-80
2023/10/21 17:01:50;;;;;;;23.52;11.25;;;;;;;;;;10487302;28;20035;-80
2023/10/21 17:06:51;;;;;;;22.35;11.48;;;;;;;;;;10487224;28;20179;-80
2023/10/21 17:11:52;;;;;;;31.92;12.82;;;;;;;;;;10482812;28;20048;-80
2023/10/21 17:16:52;;;;;;;25.92;11.63;;;;;;;;;;10485171;28;20051;-81
2023/10/21 17:21:54;;;;;;;28.63;12.85;;;;;;;;;;10484799;28;20031;-80
2023/10/21 17:26:55;;;;;;;30.92;17.90;;;;;;;;;;10475082;28;20108;-80
2023/10/21 17:31:56;;;;;;;35.15;18.83;;;;;;;;;;10484015;28;20373;-81
2023/10/21 17:36:57;;;;;;;23.38;14.15;;;;;;;;;;10487065;28;20044;-80
2023/10/21 17:41:58;;;;;;;33.15;18.88;;;;;;;;;;10485726;28;20035;-80
2023/10/21 17:47:00;;;;;;;39.83;18.80;;;;;;;;;;10486417;28;20488;-81
2023/10/21 17:52:02;;;;;;;46.40;24.42;;;;;;;;;;10485326;28;20043;-79
2023/10/21 17:57:04;;;;;;;32.00;18.85;;;;;;;;;;10475263;28;20111;-81
2023/10/21 18:02:05;;;;;;;38.47;21.70;;;;;;;;;;10485113;28;20032;-80
2023/10/21 18:07:06;;;;;;;30.20;17.77;;;;;;;;;;10484480;28;20020;-82
2023/10/21 18:12:07;;;;;;;68.55;40.70;;;;;;;;;;10484256;28;20040;-81
2023/10/21 18:17:08;;;;;;;50.28;30.80;;;;;;;;;;10484355;28;20053;-81
2023/10/21 18:22:09;;;;;;;60.85;37.97;;;;;;;;;;10484923;28;20087;-82
2023/10/21 18:27:10;;;;;;;46.72;30.23;;;;;;;;;;10479517;28;20039;-82
2023/10/21 18:32:14;;;;;;;52.40;30.50;;;;;;;;;;10483565;28;20392;-82
2023/10/21 18:37:15;;;;;;;61.03;38.63;;;;;;;;;;10485224;28;20031;-81
2023/10/21 18:42:16;;;;;;;48.70;28.85;;;;;;;;;;10484892;28;20115;-85
2023/10/21 18:47:17;;;;;;;66.05;37.53;;;;;;;;;;10476566;28;20040;-82
2023/10/21 18:52:19;;;;;;;50.20;28.38;;;;;;;;;;10480109;28;20063;-82
2023/10/21 18:57:20;;;;;;;65.55;43.47;;;;;;;;;;10473393;28;20031;-82
2023/10/21 19:02:21;;;;;;;77.68;48.33;;;;;;;;;;10482384;28;20507;-83
2023/10/21 19:07:22;;;;;;;69.70;42.15;;;;;;;;;;10482522;28;20032;-82
2023/10/21 19:12:23;;;;;;;49.72;30.02;;;;;;;;;;10480659;28;20041;-83
2023/10/21 19:17:24;;;;;;;50.65;29.23;;;;;;;;;;10486477;28;20422;-82
2023/10/21 19:22:26;;;;;;;67.95;34.95;;;;;;;;;;10501939;28;20089;-83
2023/10/21 19:27:27;;;;;;;49.30;25.70;;;;;;;;;;10482840;28;20070;-82
2023/10/21 19:32:28;;;;;;;51.38;30.55;;;;;;;;;;10482232;28;20073;-82
2023/10/21 19:37:29;;;;;;;48.55;27.55;;;;;;;;;;10483948;28;20067;-81
2023/10/21 19:42:30;;;;;;;52.05;30.70;;;;;;;;;;10482875;28;20040;-83
2023/10/21 19:47:38;;;;;;;63.30;33.85;;;;;;;;;;10482607;28;20028;-81
2023/10/21 19:52:39;;;;;;;68.28;38.15;;;;;;;;;;10476247;28;20090;-81
2023/10/21 19:57:40;;;;;;;60.30;34.95;;;;;;;;;;10477237;28;20028;-82
2023/10/21 20:02:41;;;;;;;61.95;36.47;;;;;;;;;;10480336;28;20657;-82
2023/10/21 20:07:46;;;;;;;57.85;32.90;;;;;;;;;;10484733;28;20039;-81
2023/10/21 20:12:53;;;;;;;54.50;31.05;;;;;;;;;;10490044;28;20105;-82
2023/10/21 20:17:57;;;;;;;51.53;31.95;;;;;;;;;;10477810;28;20044;-83
2023/10/21 20:22:58;;;;;;;39.55;24.33;;;;;;;;;;10489929;28;20033;-81
2023/10/21 20:27:59;;;;;;;41.63;24.17;;;;;;;;;;10488946;28;20036;-82
2023/10/21 20:33:06;;;;;;;42.50;25.02;;;;;;;;;;10490015;28;20115;-81
2023/10/21 20:38:08;;;;;;;47.67;26.52;;;;;;;;;;10489478;28;20127;-81
2023/10/21 20:43:09;;;;;;;45.88;24.35;;;;;;;;;;10489004;28;20028;-83
2023/10/21 20:48:10;;;;;;;39.92;24.05;;;;;;;;;;10489165;28;20464;-81
2023/10/21 20:53:11;;;;;;;37.65;23.00;;;;;;;;;;10488894;28;20033;-82
2023/10/21 20:58:12;;;;;;;43.95;23.67;;;;;;;;;;10487707;28;20043;-81
2023/10/21 21:03:13;;;;;;;55.05;30.98;;;;;;;;;;10488526;28;20027;-81
2023/10/21 21:08:14;;;;;;;49.00;26.55;;;;;;;;;;10488234;28;20024;-81
2023/10/21 21:13:15;;;;;;;39.78;23.30;;;;;;;;;;10485427;28;20556;-82
2023/10/21 21:18:16;;;;;;;41.25;23.60;;;;;;;;;;10486056;28;20777;-81
2023/10/21 21:23:17;;;;;;;41.65;23.13;;;;;;;;;;10488038;28;20028;-81
2023/10/21 21:28:18;;;;;;;29.95;19.23;;;;;;;;;;10486579;28;20035;-81
2023/10/21 21:33:19;;;;;;;40.90;22.40;;;;;;;;;;10487356;28;20455;-81
2023/10/21 21:38:20;;;;;;;36.95;23.15;;;;;;;;;;10485810;28;20024;-82
2023/10/21 21:43:21;;;;;;;32.97;20.80;;;;;;;;;;10486436;28;20032;-82
2023/10/21 21:48:22;;;;;;;42.58;23.25;;;;;;;;;;10486937;28;20062;-82
2023/10/21 21:53:23;;;;;;;38.35;21.90;;;;;;;;;;10487205;28;20036;-82
2023/10/21 21:58:24;;;;;;;58.53;33.42;;;;;;;;;;10484649;28;20037;-83
2023/10/21 22:03:25;;;;;;;55.03;30.70;;;;;;;;;;10486212;28;20452;-82
2023/10/21 22:08:26;;;;;;;45.25;26.25;;;;;;;;;;10485593;28;20031;-83
2023/10/21 22:13:37;;;;;;;48.15;27.67;;;;;;;;;;10483968;28;20061;-82
2023/10/21 22:18:38;;;;;;;46.72;26.77;;;;;;;;;;10485869;28;20445;-82
2023/10/21 22:23:39;;;;;;;43.55;24.05;;;;;;;;;;10484224;28;20192;-81
2023/10/21 22:28:41;;;;;;;38.90;21.23;;;;;;;;;;10485105;28;20077;-81
2023/10/21 22:33:43;;;;;;;35.75;20.38;;;;;;;;;;10485316;28;20033;-82
2023/10/21 22:38:44;;;;;;;36.67;20.60;;;;;;;;;;10484712;28;20035;-81
2023/10/21 22:43:45;;;;;;;41.40;23.05;;;;;;;;;;10484046;28;20036;-81
2023/10/21 22:48:46;;;;;;;34.72;19.35;;;;;;;;;;10484532;28;20127;-80
2023/10/21 22:53:47;;;;;;;32.60;19.65;;;;;;;;;;10484086;28;20582;-82
2023/10/21 22:58:49;;;;;;;28.92;17.95;;;;;;;;;;10483287;28;20036;-81
2023/10/21 23:03:51;;;;;;;34.20;18.30;;;;;;;;;;10481578;28;20040;-80
2023/10/21 23:08:53;;;;;;;37.72;19.75;;;;;;;;;;10482502;28;20048;-81
2023/10/21 23:13:54;;;;;;;37.83;22.80;;;;;;;;;;10481333;28;20052;-82
2023/10/21 23:18:55;;;;;;;33.97;20.15;;;;;;;;;;10484727;28;20039;-83
2023/10/21 23:23:58;;;;;;;31.40;17.40;;;;;;;;;;10483991;28;20054;-83
2023/10/21 23:28:59;;;;;;;26.00;16.77;;;;;;;;;;10482500;28;20048;-82
2023/10/21 23:34:00;;;;;;;27.48;16.20;;;;;;;;;;10483413;28;20047;-81
2023/10/21 23:39:01;;;;;;;26.15;15.60;;;;;;;;;;10492049;28;20808;-82
2023/10/21 23:44:02;;;;;;;29.05;15.57;;;;;;;;;;10490607;28;20133;-82
2023/10/21 23:49:03;;;;;;;25.05;14.50;;;;;;;;;;10490827;28;20048;-82
2023/10/21 23:54:04;;;;;;;26.95;15.25;;;;;;;;;;10490896;28;20115;-82
2023/10/21 23:59:05;;;;;;;30.75;15.95;;;;;;;;;;10490078;28;20032;-82
